Hillsdale, MI

11:21 AM EDT on August 28, 2016 (GMT -0400)
Hillsdale Municipal

Weather History for KJYM - October, 2012

Change the Weather History Date:

Tuesday, October 23, 2012

  Actual Average Record
Temperature  
Mean Temperature 64 °F -  
Max Temperature 70 °F 58 °F 83 °F (1963)
Min Temperature 59 °F 36 °F 18 °F (1969)
Growing Degree Days 14 (Base 50)    
Moisture  
Dew Point 58 °F    
Average Humidity 83    
Maximum Humidity 94    
Minimum Humidity 68    
Precipitation  
Precipitation 0.00 in - - ()
Sea Level Pressure  
Sea Level Pressure 29.97 in    
Wind  
Wind Speed 6 mph (SW)    
Max Wind Speed 13 mph    
Max Gust Speed 20 mph    
Visibility 10 miles    
Events Rain    
Averages and records for this station are not official NWS values.
T = Trace of Precipitation, MM = Missing Value Source: NWS Daily Summary

Daily Weather History Graph

Daily Weather History Graph

Search for Another Location

Airport or City:

Trip Planner

Search our weather history database for the weather conditions in past years. The results will help you decide how hot, cold, wet, or windy it might be!

Date:

Astronomy

Oct. 23, 2012 Rise Set
Actual Time 8:00 AM EDT 6:43 PM EDT
Civil Twilight 7:32 AM EDT 7:12 PM EDT
Nautical Twilight 6:59 AM EDT 7:44 PM EDT
Astronomical Twilight 6:27 AM EDT 8:17 PM EDT
Moon 3:32 PM EDT (10/23) 1:46 AM EDT (10/23)
Length of Visible Light 11h 40m
Length of Day
10h 43m
Waxing Gibbous, 66% of the Moon is Illuminated
Oct 23
Waxing Gibbous
Oct 29
Full
Nov 6
Last Quarter
Nov 13
New
Nov 20
First Quarter

Hourly Weather History & Observations

Time (EDT) Temp. Dew Point Humidity Pressure Visibility Wind Dir Wind Speed Gust Speed Precip Events Conditions
12:14 AM 62.2 °F 59.5 °F 91% 29.96 in 10.0 mi South 8.1 mph - N/A Rain Light Rain
12:35 AM 63.1 °F 59.5 °F 88% 29.96 in 10.0 mi South 9.2 mph - N/A   Overcast
1:14 AM 61.9 °F 59.4 °F 91% 29.98 in 10.0 mi NW 4.6 mph - N/A   Overcast
1:35 AM 62.1 °F 59.5 °F 91% 29.96 in 5.0 mi SSW 4.6 mph - N/A Rain Rain
2:14 AM 61.7 °F 59.5 °F 93% 29.94 in 10.0 mi South 5.8 mph - N/A   Overcast
2:34 AM 61.9 °F 58.8 °F 90% 29.93 in 10.0 mi South 8.1 mph - N/A   Mostly Cloudy
3:15 AM 61.2 °F 58.1 °F 90% 29.92 in 10.0 mi South 5.8 mph - N/A   Scattered Clouds
3:34 AM 61.0 °F 57.9 °F 90% 29.92 in 10.0 mi South 5.8 mph - N/A   Mostly Cloudy
3:54 AM 61.2 °F 57.9 °F 89% 29.92 in 10.0 mi South 3.5 mph - N/A   Overcast
4:15 AM 61.2 °F 57.7 °F 88% 29.92 in 10.0 mi SSW 5.8 mph - N/A   Overcast
4:34 AM 61.5 °F 57.6 °F 87% 29.92 in 10.0 mi SSW 6.9 mph - N/A   Overcast
4:55 AM 62.1 °F 57.0 °F 84% 29.92 in 10.0 mi SW 5.8 mph - N/A   Overcast
5:14 AM 62.2 °F 56.7 °F 82% 29.93 in 10.0 mi SW 6.9 mph - N/A   Overcast
5:35 AM 62.8 °F 56.3 °F 79% 29.93 in 10.0 mi WSW 8.1 mph - N/A   Overcast
5:54 AM 63.0 °F 55.9 °F 78% 29.93 in 10.0 mi WSW 8.1 mph - N/A   Overcast
6:15 AM 62.6 °F 55.9 °F 79% 29.94 in 10.0 mi WSW 4.6 mph - N/A   Overcast
6:35 AM 61.2 °F 55.6 °F 82% 29.93 in 10.0 mi SW 3.5 mph - N/A   Mostly Cloudy
6:55 AM 61.0 °F 55.8 °F 83% 29.93 in 10.0 mi SW 5.8 mph - N/A   Scattered Clouds
7:35 AM 60.3 °F 55.9 °F 86% 29.94 in 10.0 mi WSW 4.6 mph - N/A   Scattered Clouds
7:54 AM 59.7 °F 55.9 °F 87% 29.94 in 10.0 mi SW 4.6 mph - N/A   Overcast
8:15 AM 60.6 °F 56.1 °F 85% 29.94 in 10.0 mi West 3.5 mph - N/A   Mostly Cloudy
8:35 AM 60.3 °F 56.3 °F 87% 29.95 in 10.0 mi Calm Calm - N/A   Overcast
8:54 AM 60.3 °F 56.7 °F 88% 29.96 in 10.0 mi SW 3.5 mph - N/A   Overcast
9:15 AM 61.2 °F 56.7 °F 85% 29.98 in 10.0 mi SW 3.5 mph - N/A   Overcast
9:35 AM 61.5 °F 56.7 °F 84% 29.98 in 10.0 mi WSW 3.5 mph - N/A   Overcast
9:55 AM 61.9 °F 56.5 °F 82% 29.98 in 10.0 mi WSW 3.5 mph - N/A   Overcast
10:15 AM 62.4 °F 56.5 °F 81% 29.99 in 10.0 mi WSW 4.6 mph - N/A   Overcast
10:34 AM 63.1 °F 56.1 °F 78% 30.00 in 10.0 mi WSW 8.1 mph - N/A   Overcast
10:54 AM 63.3 °F 56.1 °F 77% 30.00 in 10.0 mi WSW 6.9 mph - N/A   Overcast
11:14 AM 63.9 °F 55.9 °F 75% 30.00 in 10.0 mi WSW 5.8 mph - N/A   Overcast
11:55 AM 64.2 °F 56.1 °F 75% 29.99 in 10.0 mi WSW 8.1 mph - N/A   Overcast
12:14 PM 64.6 °F 57.0 °F 76% 29.98 in 10.0 mi West 3.5 mph - N/A   Overcast
12:35 PM 65.7 °F 57.6 °F 75% 29.99 in 10.0 mi WSW 5.8 mph - N/A   Mostly Cloudy
12:55 PM 66.7 °F 57.7 °F 73% 29.98 in 10.0 mi SW 5.8 mph - N/A   Mostly Cloudy
1:14 PM 67.5 °F 59.0 °F 74% 29.97 in 10.0 mi WSW 5.8 mph - N/A   Scattered Clouds
1:35 PM 67.8 °F 60.1 °F 76% 29.97 in 10.0 mi WSW 5.8 mph - N/A   Clear
1:54 PM 68.4 °F 60.1 °F 75% 29.96 in 10.0 mi SSW 4.6 mph - N/A   Clear
2:15 PM 69.8 °F 59.9 °F 71% 29.96 in 10.0 mi SW 6.9 mph - N/A   Scattered Clouds
2:34 PM 69.3 °F 59.7 °F 72% 29.95 in 10.0 mi SW 5.8 mph - N/A   Clear
2:54 PM 70.0 °F 59.2 °F 68% 29.95 in 10.0 mi WSW 10.4 mph 19.6 mph N/A   Scattered Clouds
3:15 PM 70.3 °F 59.4 °F 68% 29.94 in 10.0 mi SW 10.4 mph - N/A   Scattered Clouds
3:34 PM 70.2 °F 59.4 °F 69% 29.94 in 10.0 mi West 9.2 mph - N/A   Clear
3:54 PM 69.4 °F 59.2 °F 70% 29.95 in 10.0 mi WSW 12.7 mph - N/A   Clear
4:15 PM 69.1 °F 59.7 °F 72% 29.95 in 10.0 mi West 6.9 mph - N/A   Clear
4:34 PM 69.1 °F 59.7 °F 72% 29.97 in 10.0 mi SW 10.4 mph - N/A   Clear
4:55 PM 67.8 °F 59.7 °F 75% 29.97 in 10.0 mi SW 8.1 mph - N/A   Clear
5:15 PM 67.5 °F 59.7 °F 76% 29.98 in 10.0 mi WSW 6.9 mph - N/A   Clear
5:34 PM 67.3 °F 59.9 °F 77% 29.97 in 10.0 mi SW 4.6 mph - N/A   Clear
5:54 PM 66.4 °F 60.1 °F 80% 29.97 in 10.0 mi SW 3.5 mph - N/A   Clear
6:15 PM 65.8 °F 60.1 °F 82% 29.98 in 10.0 mi Calm Calm - N/A   Clear
6:35 PM 65.1 °F 59.9 °F 83% 29.98 in 10.0 mi SSW 5.8 mph - N/A   Clear
6:54 PM 64.4 °F 59.4 °F 84% 29.99 in 10.0 mi SSW 4.6 mph - N/A   Clear
7:14 PM 64.0 °F 59.2 °F 84% 30.00 in 10.0 mi South 3.5 mph - N/A   Mostly Cloudy
7:35 PM 63.9 °F 59.5 °F 86% 30.00 in 10.0 mi South 3.5 mph - N/A   Overcast
7:55 PM 63.9 °F 59.7 °F 86% 30.00 in 10.0 mi South 4.6 mph - N/A   Overcast
8:14 PM 63.1 °F 60.1 °F 90% 30.00 in 10.0 mi South 3.5 mph - N/A   Overcast
8:35 PM 63.0 °F 60.1 °F 90% 30.00 in 10.0 mi South 4.6 mph - N/A   Overcast
8:54 PM 62.8 °F 60.1 °F 91% 30.00 in 10.0 mi South 4.6 mph - N/A   Overcast
9:15 PM 62.1 °F 59.7 °F 92% 30.00 in 10.0 mi South 4.6 mph - N/A   Mostly Cloudy
9:34 PM 61.2 °F 59.4 °F 94% 30.00 in 10.0 mi South 5.8 mph - N/A   Mostly Cloudy
9:55 PM 61.9 °F 60.1 °F 94% 30.00 in 10.0 mi South 6.9 mph - N/A   Overcast
10:14 PM 61.9 °F 60.1 °F 94% 30.01 in 10.0 mi SSW 6.9 mph - N/A   Overcast
10:35 PM 62.1 °F 60.3 °F 94% 30.01 in 10.0 mi SSW 5.8 mph - N/A   Overcast
10:55 PM 62.1 °F 60.3 °F 94% 30.01 in 10.0 mi SSW 5.8 mph - N/A   Overcast
11:35 PM 61.9 °F 60.1 °F 94% 30.01 in 10.0 mi South 3.5 mph - N/A   Mostly Cloudy
11:54 PM 61.9 °F 60.1 °F 94% 30.01 in 10.0 mi Calm Calm - N/A   Mostly Cloudy